sensor_id;sensor_type;location;lat;lon;timestamp;temperature;humidity
11532;DHT22;5822;51.000;5.874;2023-05-23T00:01:57;18.30;99.90
11532;DHT22;5822;51.000;5.874;2023-05-23T00:04:23;18.30;99.90
11532;DHT22;5822;51.000;5.874;2023-05-23T00:06:51;18.20;99.90
11532;DHT22;5822;51.000;5.874;2023-05-23T00:09:18;18.20;99.90
11532;DHT22;5822;51.000;5.874;2023-05-23T00:11:44;18.20;99.90
11532;DHT22;5822;51.000;5.874;2023-05-23T00:14:13;18.20;99.90
11532;DHT22;5822;51.000;5.874;2023-05-23T00:16:43;18.10;99.90
11532;DHT22;5822;51.000;5.874;2023-05-23T00:19:12;18.10;99.90
11532;DHT22;5822;51.000;5.874;2023-05-23T00:21:46;18.10;99.90
11532;DHT22;5822;51.000;5.874;2023-05-23T00:24:15;18.10;99.90
11532;DHT22;5822;51.000;5.874;2023-05-23T00:26:45;18.10;99.90
11532;DHT22;5822;51.000;5.874;2023-05-23T00:29:11;18.00;99.90
11532;DHT22;5822;51.000;5.874;2023-05-23T00:31:44;18.00;99.90
11532;DHT22;5822;51.000;5.874;2023-05-23T00:34:12;18.00;99.90
11532;DHT22;5822;51.000;5.874;2023-05-23T00:36:38;18.00;99.90
11532;DHT22;5822;51.000;5.874;2023-05-23T00:39:06;17.90;99.90
11532;DHT22;5822;51.000;5.874;2023-05-23T00:41:33;17.90;99.90
11532;DHT22;5822;51.000;5.874;2023-05-23T00:43:58;17.90;99.90
11532;DHT22;5822;51.000;5.874;2023-05-23T00:46:25;17.90;99.90
11532;DHT22;5822;51.000;5.874;2023-05-23T00:48:52;17.90;99.90
11532;DHT22;5822;51.000;5.874;2023-05-23T00:51:19;17.80;99.90
11532;DHT22;5822;51.000;5.874;2023-05-23T00:53:44;17.90;99.90
11532;DHT22;5822;51.000;5.874;2023-05-23T00:56:10;17.80;99.90
11532;DHT22;5822;51.000;5.874;2023-05-23T00:58:37;17.80;99.90
11532;DHT22;5822;51.000;5.874;2023-05-23T01:01:02;17.80;99.90
11532;DHT22;5822;51.000;5.874;2023-05-23T01:03:28;17.80;99.90
11532;DHT22;5822;51.000;5.874;2023-05-23T01:05:55;17.80;99.90
11532;DHT22;5822;51.000;5.874;2023-05-23T01:08:21;17.70;99.90
11532;DHT22;5822;51.000;5.874;2023-05-23T01:10:47;17.80;99.90
11532;DHT22;5822;51.000;5.874;2023-05-23T01:21:29;17.70;99.90
11532;DHT22;5822;51.000;5.874;2023-05-23T01:29:28;17.60;99.90
11532;DHT22;5822;51.000;5.874;2023-05-23T01:31:57;17.60;99.90
11532;DHT22;5822;51.000;5.874;2023-05-23T01:34:23;17.60;99.90
11532;DHT22;5822;51.000;5.874;2023-05-23T01:36:52;17.60;99.90
11532;DHT22;5822;51.000;5.874;2023-05-23T01:39:18;17.50;99.90
11532;DHT22;5822;51.000;5.874;2023-05-23T01:41:44;17.50;99.90
11532;DHT22;5822;51.000;5.874;2023-05-23T01:44:10;17.50;99.90
11532;DHT22;5822;51.000;5.874;2023-05-23T01:46:36;17.50;99.90
11532;DHT22;5822;51.000;5.874;2023-05-23T01:49:04;17.50;99.90
11532;DHT22;5822;51.000;5.874;2023-05-23T01:51:32;17.50;99.90
11532;DHT22;5822;51.000;5.874;2023-05-23T01:53:59;17.50;99.90
11532;DHT22;5822;51.000;5.874;2023-05-23T01:56:26;17.50;99.90
11532;DHT22;5822;51.000;5.874;2023-05-23T01:58:52;17.50;99.90
11532;DHT22;5822;51.000;5.874;2023-05-23T02:01:18;17.50;99.90
11532;DHT22;5822;51.000;5.874;2023-05-23T02:03:45;17.50;99.90
11532;DHT22;5822;51.000;5.874;2023-05-23T02:06:10;17.50;99.90
11532;DHT22;5822;51.000;5.874;2023-05-23T02:08:36;17.50;99.90
11532;DHT22;5822;51.000;5.874;2023-05-23T02:11:02;17.40;99.90
11532;DHT22;5822;51.000;5.874;2023-05-23T02:13:28;17.40;99.90
11532;DHT22;5822;51.000;5.874;2023-05-23T02:15:53;17.40;99.90
11532;DHT22;5822;51.000;5.874;2023-05-23T02:18:20;17.40;99.90
11532;DHT22;5822;51.000;5.874;2023-05-23T02:20:45;17.40;99.90
11532;DHT22;5822;51.000;5.874;2023-05-23T02:23:11;17.40;99.90
11532;DHT22;5822;51.000;5.874;2023-05-23T02:25:37;17.30;99.90
11532;DHT22;5822;51.000;5.874;2023-05-23T02:28:02;17.40;99.90
11532;DHT22;5822;51.000;5.874;2023-05-23T02:30:28;17.30;99.90
11532;DHT22;5822;51.000;5.874;2023-05-23T02:32:54;17.30;99.90
11532;DHT22;5822;51.000;5.874;2023-05-23T02:35:20;17.30;99.90
11532;DHT22;5822;51.000;5.874;2023-05-23T02:37:46;17.30;99.90
11532;DHT22;5822;51.000;5.874;2023-05-23T02:40:11;17.30;99.90
11532;DHT22;5822;51.000;5.874;2023-05-23T02:42:37;17.40;99.90
11532;DHT22;5822;51.000;5.874;2023-05-23T02:45:03;17.40;99.90
11532;DHT22;5822;51.000;5.874;2023-05-23T02:47:29;17.30;99.90
11532;DHT22;5822;51.000;5.874;2023-05-23T02:49:54;17.40;99.90
11532;DHT22;5822;51.000;5.874;2023-05-23T02:52:20;17.40;99.90
11532;DHT22;5822;51.000;5.874;2023-05-23T02:54:46;17.40;99.90
11532;DHT22;5822;51.000;5.874;2023-05-23T02:57:11;17.30;99.90
11532;DHT22;5822;51.000;5.874;2023-05-23T02:59:37;17.30;99.90
11532;DHT22;5822;51.000;5.874;2023-05-23T03:02:03;17.40;99.90
11532;DHT22;5822;51.000;5.874;2023-05-23T03:04:28;17.30;99.90
11532;DHT22;5822;51.000;5.874;2023-05-23T03:06:56;17.30;99.90
11532;DHT22;5822;51.000;5.874;2023-05-23T03:09:24;17.30;99.90
11532;DHT22;5822;51.000;5.874;2023-05-23T03:11:50;17.30;99.90
11532;DHT22;5822;51.000;5.874;2023-05-23T03:14:16;17.30;99.90
11532;DHT22;5822;51.000;5.874;2023-05-23T03:16:41;17.30;99.90
11532;DHT22;5822;51.000;5.874;2023-05-23T03:19:07;17.30;99.90
11532;DHT22;5822;51.000;5.874;2023-05-23T03:21:33;17.30;99.90
11532;DHT22;5822;51.000;5.874;2023-05-23T03:23:59;17.20;99.90
11532;DHT22;5822;51.000;5.874;2023-05-23T03:26:25;17.20;99.90
11532;DHT22;5822;51.000;5.874;2023-05-23T03:28:51;17.20;99.90
11532;DHT22;5822;51.000;5.874;2023-05-23T03:31:16;17.20;99.90
11532;DHT22;5822;51.000;5.874;2023-05-23T03:33:42;17.20;99.90
11532;DHT22;5822;51.000;5.874;2023-05-23T03:36:08;17.20;99.90
11532;DHT22;5822;51.000;5.874;2023-05-23T03:38:33;17.20;99.90
11532;DHT22;5822;51.000;5.874;2023-05-23T03:40:59;17.20;99.90
11532;DHT22;5822;51.000;5.874;2023-05-23T03:43:25;17.20;99.90
11532;DHT22;5822;51.000;5.874;2023-05-23T03:45:50;17.20;99.90
11532;DHT22;5822;51.000;5.874;2023-05-23T03:48:16;17.20;99.90
11532;DHT22;5822;51.000;5.874;2023-05-23T03:50:42;17.20;99.90
11532;DHT22;5822;51.000;5.874;2023-05-23T03:53:07;17.20;99.90
11532;DHT22;5822;51.000;5.874;2023-05-23T03:55:33;17.20;99.90
11532;DHT22;5822;51.000;5.874;2023-05-23T03:57:59;17.20;99.90
11532;DHT22;5822;51.000;5.874;2023-05-23T04:00:25;17.10;99.90
11532;DHT22;5822;51.000;5.874;2023-05-23T04:02:51;17.10;99.90
11532;DHT22;5822;51.000;5.874;2023-05-23T04:05:17;17.10;99.90
11532;DHT22;5822;51.000;5.874;2023-05-23T04:07:43;17.10;99.90
11532;DHT22;5822;51.000;5.874;2023-05-23T04:10:09;17.10;99.90
11532;DHT22;5822;51.000;5.874;2023-05-23T04:12:35;17.10;99.90
11532;DHT22;5822;51.000;5.874;2023-05-23T04:15:02;17.20;99.90
11532;DHT22;5822;51.000;5.874;2023-05-23T04:17:28;17.20;99.90
11532;DHT22;5822;51.000;5.874;2023-05-23T04:19:56;17.20;99.90
11532;DHT22;5822;51.000;5.874;2023-05-23T04:22:21;17.10;99.90
11532;DHT22;5822;51.000;5.874;2023-05-23T04:24:47;17.20;99.90
11532;DHT22;5822;51.000;5.874;2023-05-23T04:27:13;17.10;99.90
11532;DHT22;5822;51.000;5.874;2023-05-23T04:29:39;17.20;99.90
11532;DHT22;5822;51.000;5.874;2023-05-23T04:32:05;17.10;99.90
11532;DHT22;5822;51.000;5.874;2023-05-23T04:34:31;17.20;99.90
11532;DHT22;5822;51.000;5.874;2023-05-23T04:37:00;17.10;99.90
11532;DHT22;5822;51.000;5.874;2023-05-23T04:39:29;17.20;99.90
11532;DHT22;5822;51.000;5.874;2023-05-23T04:41:55;17.10;99.90
11532;DHT22;5822;51.000;5.874;2023-05-23T04:44:24;17.10;99.90
11532;DHT22;5822;51.000;5.874;2023-05-23T04:46:51;17.10;99.90
11532;DHT22;5822;51.000;5.874;2023-05-23T04:49:17;17.10;99.90
11532;DHT22;5822;51.000;5.874;2023-05-23T04:51:42;17.10;99.90
11532;DHT22;5822;51.000;5.874;2023-05-23T04:54:08;17.10;99.90
11532;DHT22;5822;51.000;5.874;2023-05-23T04:56:34;17.10;99.90
11532;DHT22;5822;51.000;5.874;2023-05-23T04:59:00;17.10;99.90
11532;DHT22;5822;51.000;5.874;2023-05-23T05:01:25;17.00;99.90
11532;DHT22;5822;51.000;5.874;2023-05-23T05:03:52;17.10;99.90
11532;DHT22;5822;51.000;5.874;2023-05-23T05:06:17;17.10;99.90
11532;DHT22;5822;51.000;5.874;2023-05-23T05:08:43;17.00;99.90
11532;DHT22;5822;51.000;5.874;2023-05-23T05:11:09;17.00;99.90
11532;DHT22;5822;51.000;5.874;2023-05-23T05:13:35;17.10;99.90
11532;DHT22;5822;51.000;5.874;2023-05-23T05:16:01;17.10;99.90
11532;DHT22;5822;51.000;5.874;2023-05-23T05:18:27;17.00;99.90
11532;DHT22;5822;51.000;5.874;2023-05-23T05:20:53;17.00;99.90
11532;DHT22;5822;51.000;5.874;2023-05-23T05:23:19;17.00;99.90
11532;DHT22;5822;51.000;5.874;2023-05-23T05:25:45;17.00;99.90
11532;DHT22;5822;51.000;5.874;2023-05-23T05:28:12;17.10;99.90
11532;DHT22;5822;51.000;5.874;2023-05-23T05:30:37;17.10;99.90
11532;DHT22;5822;51.000;5.874;2023-05-23T05:33:04;17.10;99.90
11532;DHT22;5822;51.000;5.874;2023-05-23T05:35:30;17.10;99.90
11532;DHT22;5822;51.000;5.874;2023-05-23T05:37:57;17.10;99.90
11532;DHT22;5822;51.000;5.874;2023-05-23T05:40:22;17.10;99.90
11532;DHT22;5822;51.000;5.874;2023-05-23T05:42:48;17.20;99.90
11532;DHT22;5822;51.000;5.874;2023-05-23T05:45:14;17.10;99.90
11532;DHT22;5822;51.000;5.874;2023-05-23T05:47:40;17.10;99.90
11532;DHT22;5822;51.000;5.874;2023-05-23T05:50:06;17.10;99.90
11532;DHT22;5822;51.000;5.874;2023-05-23T05:52:36;17.10;99.90
11532;DHT22;5822;51.000;5.874;2023-05-23T05:55:08;17.10;99.90
11532;DHT22;5822;51.000;5.874;2023-05-23T05:57:40;17.20;99.90
11532;DHT22;5822;51.000;5.874;2023-05-23T06:00:07;17.10;99.90
11532;DHT22;5822;51.000;5.874;2023-05-23T06:02:38;17.20;99.90
11532;DHT22;5822;51.000;5.874;2023-05-23T06:05:04;17.10;99.90
11532;DHT22;5822;51.000;5.874;2023-05-23T06:07:32;17.20;99.90
11532;DHT22;5822;51.000;5.874;2023-05-23T06:09:58;17.20;99.90
11532;DHT22;5822;51.000;5.874;2023-05-23T06:12:24;17.20;99.90
11532;DHT22;5822;51.000;5.874;2023-05-23T06:14:49;17.10;99.90
11532;DHT22;5822;51.000;5.874;2023-05-23T06:17:15;17.10;99.90
11532;DHT22;5822;51.000;5.874;2023-05-23T06:19:41;17.10;99.90
11532;DHT22;5822;51.000;5.874;2023-05-23T06:22:06;17.10;99.90
11532;DHT22;5822;51.000;5.874;2023-05-23T06:24:32;17.10;99.90
11532;DHT22;5822;51.000;5.874;2023-05-23T06:26:57;17.10;99.90
11532;DHT22;5822;51.000;5.874;2023-05-23T06:29:23;17.10;99.90
11532;DHT22;5822;51.000;5.874;2023-05-23T06:31:49;17.00;99.90
11532;DHT22;5822;51.000;5.874;2023-05-23T06:34:16;17.00;99.90
11532;DHT22;5822;51.000;5.874;2023-05-23T06:36:41;17.00;99.90
11532;DHT22;5822;51.000;5.874;2023-05-23T06:39:08;17.00;99.90
11532;DHT22;5822;51.000;5.874;2023-05-23T06:41:37;17.00;99.90
11532;DHT22;5822;51.000;5.874;2023-05-23T06:44:03;17.10;99.90
11532;DHT22;5822;51.000;5.874;2023-05-23T06:46:28;17.10;99.90
11532;DHT22;5822;51.000;5.874;2023-05-23T06:48:54;17.10;99.90
11532;DHT22;5822;51.000;5.874;2023-05-23T06:51:20;17.10;99.90
11532;DHT22;5822;51.000;5.874;2023-05-23T06:53:45;17.20;99.90
11532;DHT22;5822;51.000;5.874;2023-05-23T06:56:11;17.20;99.90
11532;DHT22;5822;51.000;5.874;2023-05-23T06:58:36;17.20;99.90
11532;DHT22;5822;51.000;5.874;2023-05-23T07:01:02;17.20;99.90
11532;DHT22;5822;51.000;5.874;2023-05-23T07:03:28;17.20;99.90
11532;DHT22;5822;51.000;5.874;2023-05-23T07:05:53;17.10;99.90
11532;DHT22;5822;51.000;5.874;2023-05-23T07:08:19;17.20;99.90
11532;DHT22;5822;51.000;5.874;2023-05-23T07:10:45;17.10;99.90
11532;DHT22;5822;51.000;5.874;2023-05-23T07:13:10;17.20;99.90
11532;DHT22;5822;51.000;5.874;2023-05-23T07:15:36;17.20;99.90
11532;DHT22;5822;51.000;5.874;2023-05-23T07:18:01;17.10;99.90
11532;DHT22;5822;51.000;5.874;2023-05-23T07:20:27;17.10;99.90
11532;DHT22;5822;51.000;5.874;2023-05-23T07:22:53;17.10;99.90
11532;DHT22;5822;51.000;5.874;2023-05-23T07:25:18;17.00;99.90
11532;DHT22;5822;51.000;5.874;2023-05-23T07:27:47;17.00;99.90
11532;DHT22;5822;51.000;5.874;2023-05-23T07:30:13;17.00;99.90
11532;DHT22;5822;51.000;5.874;2023-05-23T07:32:39;16.90;99.90
11532;DHT22;5822;51.000;5.874;2023-05-23T07:35:05;16.90;99.90
11532;DHT22;5822;51.000;5.874;2023-05-23T07:37:30;16.90;99.90
11532;DHT22;5822;51.000;5.874;2023-05-23T07:39:56;16.80;99.90
11532;DHT22;5822;51.000;5.874;2023-05-23T07:42:22;16.70;99.90
11532;DHT22;5822;51.000;5.874;2023-05-23T07:44:47;16.60;99.90
11532;DHT22;5822;51.000;5.874;2023-05-23T07:47:13;16.60;99.90
11532;DHT22;5822;51.000;5.874;2023-05-23T07:49:38;16.60;99.90
11532;DHT22;5822;51.000;5.874;2023-05-23T07:52:04;16.70;99.90
11532;DHT22;5822;51.000;5.874;2023-05-23T07:54:31;16.60;99.90
11532;DHT22;5822;51.000;5.874;2023-05-23T07:56:57;16.60;99.90
11532;DHT22;5822;51.000;5.874;2023-05-23T07:59:22;16.60;99.90
11532;DHT22;5822;51.000;5.874;2023-05-23T08:01:48;16.60;99.90
11532;DHT22;5822;51.000;5.874;2023-05-23T08:04:17;16.60;99.90
11532;DHT22;5822;51.000;5.874;2023-05-23T08:06:42;16.60;99.90
11532;DHT22;5822;51.000;5.874;2023-05-23T08:09:11;16.60;99.90
11532;DHT22;5822;51.000;5.874;2023-05-23T08:11:37;16.60;99.90
11532;DHT22;5822;51.000;5.874;2023-05-23T08:14:03;16.50;99.90
11532;DHT22;5822;51.000;5.874;2023-05-23T08:16:28;16.50;99.90
11532;DHT22;5822;51.000;5.874;2023-05-23T08:18:54;16.40;99.90
11532;DHT22;5822;51.000;5.874;2023-05-23T08:21:20;16.40;99.90
11532;DHT22;5822;51.000;5.874;2023-05-23T08:23:45;16.40;99.90
11532;DHT22;5822;51.000;5.874;2023-05-23T08:26:11;16.40;99.90
11532;DHT22;5822;51.000;5.874;2023-05-23T08:28:37;16.50;99.90
11532;DHT22;5822;51.000;5.874;2023-05-23T08:31:02;16.60;99.90
11532;DHT22;5822;51.000;5.874;2023-05-23T08:33:28;16.70;99.90
11532;DHT22;5822;51.000;5.874;2023-05-23T08:35:53;16.70;99.90
11532;DHT22;5822;51.000;5.874;2023-05-23T08:38:19;16.70;99.90
11532;DHT22;5822;51.000;5.874;2023-05-23T08:40:49;16.70;99.90
11532;DHT22;5822;51.000;5.874;2023-05-23T08:43:16;16.80;99.90
11532;DHT22;5822;51.000;5.874;2023-05-23T08:45:42;16.80;99.90
11532;DHT22;5822;51.000;5.874;2023-05-23T08:48:11;16.70;99.90
11532;DHT22;5822;51.000;5.874;2023-05-23T08:50:39;16.70;99.90
11532;DHT22;5822;51.000;5.874;2023-05-23T08:53:05;16.60;99.90
11532;DHT22;5822;51.000;5.874;2023-05-23T08:55:33;16.60;99.90
11532;DHT22;5822;51.000;5.874;2023-05-23T08:57:59;16.50;99.90
11532;DHT22;5822;51.000;5.874;2023-05-23T09:00:26;16.50;99.90
11532;DHT22;5822;51.000;5.874;2023-05-23T09:02:52;16.50;99.90
11532;DHT22;5822;51.000;5.874;2023-05-23T09:05:19;16.60;99.90
11532;DHT22;5822;51.000;5.874;2023-05-23T09:07:46;16.50;99.90
11532;DHT22;5822;51.000;5.874;2023-05-23T09:10:16;16.40;99.90
11532;DHT22;5822;51.000;5.874;2023-05-23T09:12:42;16.40;99.90
11532;DHT22;5822;51.000;5.874;2023-05-23T09:15:08;16.40;99.90
11532;DHT22;5822;51.000;5.874;2023-05-23T09:17:35;16.30;99.90
11532;DHT22;5822;51.000;5.874;2023-05-23T09:20:02;16.40;99.90
11532;DHT22;5822;51.000;5.874;2023-05-23T09:22:31;16.40;99.90
11532;DHT22;5822;51.000;5.874;2023-05-23T09:24:57;16.40;99.90
11532;DHT22;5822;51.000;5.874;2023-05-23T09:27:22;16.50;99.90
11532;DHT22;5822;51.000;5.874;2023-05-23T09:29:49;16.50;99.90
11532;DHT22;5822;51.000;5.874;2023-05-23T09:32:17;16.50;99.90
11532;DHT22;5822;51.000;5.874;2023-05-23T09:34:56;16.60;99.90
11532;DHT22;5822;51.000;5.874;2023-05-23T09:37:32;16.70;99.90
11532;DHT22;5822;51.000;5.874;2023-05-23T09:39:59;16.80;99.90
11532;DHT22;5822;51.000;5.874;2023-05-23T09:42:31;16.90;99.90
11532;DHT22;5822;51.000;5.874;2023-05-23T09:44:57;17.00;99.90
11532;DHT22;5822;51.000;5.874;2023-05-23T09:47:23;17.10;99.90
11532;DHT22;5822;51.000;5.874;2023-05-23T09:49:49;17.10;99.90
11532;DHT22;5822;51.000;5.874;2023-05-23T09:52:15;17.20;99.90
11532;DHT22;5822;51.000;5.874;2023-05-23T09:54:42;17.20;99.90
11532;DHT22;5822;51.000;5.874;2023-05-23T09:57:10;17.40;99.90
11532;DHT22;5822;51.000;5.874;2023-05-23T09:59:39;17.40;99.90
11532;DHT22;5822;51.000;5.874;2023-05-23T10:02:07;17.50;99.90
11532;DHT22;5822;51.000;5.874;2023-05-23T10:04:36;17.40;99.90
11532;DHT22;5822;51.000;5.874;2023-05-23T10:07:22;17.50;99.90
11532;DHT22;5822;51.000;5.874;2023-05-23T10:09:54;17.50;99.90
11532;DHT22;5822;51.000;5.874;2023-05-23T10:15:03;17.50;99.90
11532;DHT22;5822;51.000;5.874;2023-05-23T10:17:51;17.50;99.90
11532;DHT22;5822;51.000;5.874;2023-05-23T10:20:23;17.50;99.90
11532;DHT22;5822;51.000;5.874;2023-05-23T10:22:49;17.50;99.90
11532;DHT22;5822;51.000;5.874;2023-05-23T10:25:15;17.50;99.90
11532;DHT22;5822;51.000;5.874;2023-05-23T10:27:42;17.50;99.90
11532;DHT22;5822;51.000;5.874;2023-05-23T10:30:08;17.50;99.90
11532;DHT22;5822;51.000;5.874;2023-05-23T10:32:35;17.50;99.90
11532;DHT22;5822;51.000;5.874;2023-05-23T10:43:47;17.60;99.90
11532;DHT22;5822;51.000;5.874;2023-05-23T10:46:14;17.60;99.90
11532;DHT22;5822;51.000;5.874;2023-05-23T10:48:41;17.60;99.90
11532;DHT22;5822;51.000;5.874;2023-05-23T10:51:12;17.60;99.90
11532;DHT22;5822;51.000;5.874;2023-05-23T10:53:44;17.60;99.90
11532;DHT22;5822;51.000;5.874;2023-05-23T10:56:18;17.60;99.90
11532;DHT22;5822;51.000;5.874;2023-05-23T10:58:45;17.70;99.90
11532;DHT22;5822;51.000;5.874;2023-05-23T11:01:15;17.80;99.90
11532;DHT22;5822;51.000;5.874;2023-05-23T11:06:32;17.80;99.90
11532;DHT22;5822;51.000;5.874;2023-05-23T11:09:05;17.80;99.90
11532;DHT22;5822;51.000;5.874;2023-05-23T11:12:00;17.90;99.90
11532;DHT22;5822;51.000;5.874;2023-05-23T11:19:58;18.10;99.90
11532;DHT22;5822;51.000;5.874;2023-05-23T11:22:31;18.10;99.90
11532;DHT22;5822;51.000;5.874;2023-05-23T11:24:58;18.00;99.90
11532;DHT22;5822;51.000;5.874;2023-05-23T11:27:32;18.00;99.90
11532;DHT22;5822;51.000;5.874;2023-05-23T11:30:11;18.00;99.90
11532;DHT22;5822;51.000;5.874;2023-05-23T11:32:41;18.00;99.90
11532;DHT22;5822;51.000;5.874;2023-05-23T11:35:08;18.00;99.90
11532;DHT22;5822;51.000;5.874;2023-05-23T11:37:36;18.00;99.90
11532;DHT22;5822;51.000;5.874;2023-05-23T11:40:28;18.10;99.90
11532;DHT22;5822;51.000;5.874;2023-05-23T11:42:54;18.20;99.90
11532;DHT22;5822;51.000;5.874;2023-05-23T11:45:24;18.30;99.90
11532;DHT22;5822;51.000;5.874;2023-05-23T11:47:50;18.30;99.90
11532;DHT22;5822;51.000;5.874;2023-05-23T11:50:16;18.30;99.90
11532;DHT22;5822;51.000;5.874;2023-05-23T11:52:42;18.30;99.90
11532;DHT22;5822;51.000;5.874;2023-05-23T11:55:08;18.30;99.90
11532;DHT22;5822;51.000;5.874;2023-05-23T11:57:40;18.30;99.90
11532;DHT22;5822;51.000;5.874;2023-05-23T12:00:07;18.30;99.90
11532;DHT22;5822;51.000;5.874;2023-05-23T12:02:38;18.30;99.90
11532;DHT22;5822;51.000;5.874;2023-05-23T12:05:12;18.20;99.90
11532;DHT22;5822;51.000;5.874;2023-05-23T12:07:44;18.20;99.90
11532;DHT22;5822;51.000;5.874;2023-05-23T12:10:13;18.30;99.90
11532;DHT22;5822;51.000;5.874;2023-05-23T12:12:40;18.30;99.90
11532;DHT22;5822;51.000;5.874;2023-05-23T12:15:08;18.20;99.90
11532;DHT22;5822;51.000;5.874;2023-05-23T12:17:35;18.20;99.90
11532;DHT22;5822;51.000;5.874;2023-05-23T12:20:05;18.20;99.90
11532;DHT22;5822;51.000;5.874;2023-05-23T12:22:31;18.20;99.90
11532;DHT22;5822;51.000;5.874;2023-05-23T12:24:57;18.20;99.90
11532;DHT22;5822;51.000;5.874;2023-05-23T12:27:27;18.20;99.90
11532;DHT22;5822;51.000;5.874;2023-05-23T12:30:07;18.30;99.90
11532;DHT22;5822;51.000;5.874;2023-05-23T12:32:44;18.30;99.90
11532;DHT22;5822;51.000;5.874;2023-05-23T12:35:12;18.40;99.90
11532;DHT22;5822;51.000;5.874;2023-05-23T12:37:42;18.40;99.90
11532;DHT22;5822;51.000;5.874;2023-05-23T12:40:15;18.40;99.90
11532;DHT22;5822;51.000;5.874;2023-05-23T12:45:35;18.50;99.90
11532;DHT22;5822;51.000;5.874;2023-05-23T12:48:02;18.50;99.90
11532;DHT22;5822;51.000;5.874;2023-05-23T12:50:28;18.70;99.90
11532;DHT22;5822;51.000;5.874;2023-05-23T12:52:54;18.80;99.90
11532;DHT22;5822;51.000;5.874;2023-05-23T12:55:20;18.80;99.90
11532;DHT22;5822;51.000;5.874;2023-05-23T12:57:46;18.80;99.90
11532;DHT22;5822;51.000;5.874;2023-05-23T13:00:12;18.80;99.90
11532;DHT22;5822;51.000;5.874;2023-05-23T13:02:38;18.90;99.90
11532;DHT22;5822;51.000;5.874;2023-05-23T13:05:05;18.80;99.90
11532;DHT22;5822;51.000;5.874;2023-05-23T13:07:31;18.90;99.90
11532;DHT22;5822;51.000;5.874;2023-05-23T13:09:57;18.90;99.90
11532;DHT22;5822;51.000;5.874;2023-05-23T13:12:23;18.90;99.90
11532;DHT22;5822;51.000;5.874;2023-05-23T13:14:49;19.00;99.90
11532;DHT22;5822;51.000;5.874;2023-05-23T13:17:15;19.20;99.90
11532;DHT22;5822;51.000;5.874;2023-05-23T13:19:41;19.30;99.90
11532;DHT22;5822;51.000;5.874;2023-05-23T13:22:07;19.50;99.90
11532;DHT22;5822;51.000;5.874;2023-05-23T13:24:37;19.50;99.90
11532;DHT22;5822;51.000;5.874;2023-05-23T13:27:06;19.50;99.90
11532;DHT22;5822;51.000;5.874;2023-05-23T13:29:32;19.70;99.90
11532;DHT22;5822;51.000;5.874;2023-05-23T13:31:58;19.70;99.90
11532;DHT22;5822;51.000;5.874;2023-05-23T13:34:25;19.70;99.90
11532;DHT22;5822;51.000;5.874;2023-05-23T13:36:51;19.80;99.90
11532;DHT22;5822;51.000;5.874;2023-05-23T13:39:17;19.90;99.90
11532;DHT22;5822;51.000;5.874;2023-05-23T13:41:45;20.00;99.90
11532;DHT22;5822;51.000;5.874;2023-05-23T13:44:11;20.00;99.90
11532;DHT22;5822;51.000;5.874;2023-05-23T13:46:37;20.10;99.90
11532;DHT22;5822;51.000;5.874;2023-05-23T13:49:03;20.20;99.90
11532;DHT22;5822;51.000;5.874;2023-05-23T13:51:29;20.40;99.90
11532;DHT22;5822;51.000;5.874;2023-05-23T13:53:54;20.30;99.90
11532;DHT22;5822;51.000;5.874;2023-05-23T13:56:21;20.20;99.90
11532;DHT22;5822;51.000;5.874;2023-05-23T13:58:48;20.20;99.90
11532;DHT22;5822;51.000;5.874;2023-05-23T14:01:14;20.10;99.90
11532;DHT22;5822;51.000;5.874;2023-05-23T14:03:40;20.00;99.90
11532;DHT22;5822;51.000;5.874;2023-05-23T14:06:05;19.80;99.90
11532;DHT22;5822;51.000;5.874;2023-05-23T14:08:32;19.80;99.90
11532;DHT22;5822;51.000;5.874;2023-05-23T14:10:57;19.70;99.90
11532;DHT22;5822;51.000;5.874;2023-05-23T14:13:23;19.80;99.90
11532;DHT22;5822;51.000;5.874;2023-05-23T14:15:50;19.90;99.90
11532;DHT22;5822;51.000;5.874;2023-05-23T14:18:16;20.00;99.90
11532;DHT22;5822;51.000;5.874;2023-05-23T14:20:41;20.10;99.90
11532;DHT22;5822;51.000;5.874;2023-05-23T14:23:07;20.20;99.90
11532;DHT22;5822;51.000;5.874;2023-05-23T14:25:34;20.30;99.90
11532;DHT22;5822;51.000;5.874;2023-05-23T14:28:00;20.40;99.90
11532;DHT22;5822;51.000;5.874;2023-05-23T14:30:26;20.50;99.90
11532;DHT22;5822;51.000;5.874;2023-05-23T14:32:52;20.50;99.90
11532;DHT22;5822;51.000;5.874;2023-05-23T14:35:18;20.60;99.90
11532;DHT22;5822;51.000;5.874;2023-05-23T14:37:46;20.70;99.90
11532;DHT22;5822;51.000;5.874;2023-05-23T14:40:12;20.80;99.90
11532;DHT22;5822;51.000;5.874;2023-05-23T14:42:38;20.80;99.90
11532;DHT22;5822;51.000;5.874;2023-05-23T14:45:04;20.90;99.90
11532;DHT22;5822;51.000;5.874;2023-05-23T14:47:30;20.90;99.90
11532;DHT22;5822;51.000;5.874;2023-05-23T14:49:57;20.80;99.90
11532;DHT22;5822;51.000;5.874;2023-05-23T14:52:22;20.70;99.90
11532;DHT22;5822;51.000;5.874;2023-05-23T14:54:48;20.80;99.90
11532;DHT22;5822;51.000;5.874;2023-05-23T14:57:14;20.90;99.90
11532;DHT22;5822;51.000;5.874;2023-05-23T14:59:40;21.00;99.90
11532;DHT22;5822;51.000;5.874;2023-05-23T15:02:05;20.90;99.90
11532;DHT22;5822;51.000;5.874;2023-05-23T15:04:36;20.90;99.90
11532;DHT22;5822;51.000;5.874;2023-05-23T15:07:02;20.90;99.90
11532;DHT22;5822;51.000;5.874;2023-05-23T15:09:28;20.80;99.90
11532;DHT22;5822;51.000;5.874;2023-05-23T15:11:54;20.70;99.90
11532;DHT22;5822;51.000;5.874;2023-05-23T15:14:19;20.70;99.90
11532;DHT22;5822;51.000;5.874;2023-05-23T15:16:46;20.70;99.90
11532;DHT22;5822;51.000;5.874;2023-05-23T15:19:14;20.70;99.90
11532;DHT22;5822;51.000;5.874;2023-05-23T15:21:40;20.80;99.90
11532;DHT22;5822;51.000;5.874;2023-05-23T15:24:06;20.80;99.90
11532;DHT22;5822;51.000;5.874;2023-05-23T15:26:33;20.80;99.90
11532;DHT22;5822;51.000;5.874;2023-05-23T15:28:59;20.90;99.90
11532;DHT22;5822;51.000;5.874;2023-05-23T15:31:25;20.90;99.90
11532;DHT22;5822;51.000;5.874;2023-05-23T15:33:50;21.00;99.90
11532;DHT22;5822;51.000;5.874;2023-05-23T15:36:16;21.00;99.90
11532;DHT22;5822;51.000;5.874;2023-05-23T15:38:42;21.00;99.90
11532;DHT22;5822;51.000;5.874;2023-05-23T15:41:09;20.90;99.90
11532;DHT22;5822;51.000;5.874;2023-05-23T15:43:35;20.90;99.90
11532;DHT22;5822;51.000;5.874;2023-05-23T15:46:01;20.90;99.90
11532;DHT22;5822;51.000;5.874;2023-05-23T15:48:27;20.70;99.90
11532;DHT22;5822;51.000;5.874;2023-05-23T15:50:53;20.70;99.90
11532;DHT22;5822;51.000;5.874;2023-05-23T15:53:18;20.70;99.90
11532;DHT22;5822;51.000;5.874;2023-05-23T15:55:45;20.80;99.90
11532;DHT22;5822;51.000;5.874;2023-05-23T15:58:12;20.80;99.90
11532;DHT22;5822;51.000;5.874;2023-05-23T16:00:38;20.80;99.90
11532;DHT22;5822;51.000;5.874;2023-05-23T16:03:03;20.70;99.90
11532;DHT22;5822;51.000;5.874;2023-05-23T16:05:29;20.70;99.90
11532;DHT22;5822;51.000;5.874;2023-05-23T16:07:55;20.70;99.90
11532;DHT22;5822;51.000;5.874;2023-05-23T16:10:21;20.70;99.90
11532;DHT22;5822;51.000;5.874;2023-05-23T16:12:48;20.70;99.90
11532;DHT22;5822;51.000;5.874;2023-05-23T16:15:14;20.60;99.90
11532;DHT22;5822;51.000;5.874;2023-05-23T16:17:39;20.50;99.90
11532;DHT22;5822;51.000;5.874;2023-05-23T16:20:06;20.40;99.90